sensor_id;sensor_type;location;lat;lon;timestamp;pressure;altitude;pressure_sealevel;temperature;humidity
59443;BME280;45247;47.466;19.004;2023-05-03T00:01:41;100181.59;;;13.36;100.00
59443;BME280;45247;47.466;19.004;2023-05-03T00:04:10;100174.38;;;13.25;100.00
59443;BME280;45247;47.466;19.004;2023-05-03T00:06:42;100173.59;;;13.23;100.00
59443;BME280;45247;47.466;19.004;2023-05-03T00:09:11;100182.00;;;13.30;100.00
59443;BME280;45247;47.466;19.004;2023-05-03T00:11:40;100167.91;;;13.29;100.00
59443;BME280;45247;47.466;19.004;2023-05-03T00:14:08;100175.25;;;13.38;100.00
59443;BME280;45247;47.466;19.004;2023-05-03T00:16:36;100170.25;;;13.34;100.00
59443;BME280;45247;47.466;19.004;2023-05-03T00:19:04;100166.75;;;13.33;100.00
59443;BME280;45247;47.466;19.004;2023-05-03T00:21:43;100169.81;;;13.27;100.00
59443;BME280;45247;47.466;19.004;2023-05-03T00:24:13;100160.09;;;13.13;100.00
59443;BME280;45247;47.466;19.004;2023-05-03T00:26:41;100156.91;;;13.08;100.00
59443;BME280;45247;47.466;19.004;2023-05-03T00:29:09;100170.44;;;13.03;100.00
59443;BME280;45247;47.466;19.004;2023-05-03T00:31:37;100166.41;;;12.98;100.00
59443;BME280;45247;47.466;19.004;2023-05-03T00:34:05;100151.56;;;12.95;100.00
59443;BME280;45247;47.466;19.004;2023-05-03T00:36:33;100158.53;;;12.96;100.00
59443;BME280;45247;47.466;19.004;2023-05-03T00:39:02;100167.63;;;12.92;100.00
59443;BME280;45247;47.466;19.004;2023-05-03T00:41:32;100151.97;;;12.89;100.00
59443;BME280;45247;47.466;19.004;2023-05-03T00:44:00;100172.94;;;12.92;100.00
59443;BME280;45247;47.466;19.004;2023-05-03T00:46:28;100169.38;;;12.93;100.00
59443;BME280;45247;47.466;19.004;2023-05-03T00:48:57;100183.53;;;12.92;100.00
59443;BME280;45247;47.466;19.004;2023-05-03T00:51:26;100171.06;;;12.94;100.00
59443;BME280;45247;47.466;19.004;2023-05-03T00:53:55;100172.84;;;12.94;100.00
59443;BME280;45247;47.466;19.004;2023-05-03T00:56:24;100182.50;;;12.95;100.00
59443;BME280;45247;47.466;19.004;2023-05-03T00:58:57;100177.19;;;12.95;100.00
59443;BME280;45247;47.466;19.004;2023-05-03T01:01:25;100188.09;;;12.90;100.00
59443;BME280;45247;47.466;19.004;2023-05-03T01:03:54;100187.13;;;12.91;100.00
59443;BME280;45247;47.466;19.004;2023-05-03T01:06:31;100192.44;;;12.91;100.00
59443;BME280;45247;47.466;19.004;2023-05-03T01:09:02;100197.38;;;12.83;100.00
59443;BME280;45247;47.466;19.004;2023-05-03T01:11:41;100202.91;;;12.66;100.00
59443;BME280;45247;47.466;19.004;2023-05-03T01:14:21;100206.88;;;12.59;100.00
59443;BME280;45247;47.466;19.004;2023-05-03T01:16:53;100209.72;;;12.56;100.00
59443;BME280;45247;47.466;19.004;2023-05-03T01:19:28;100210.47;;;12.58;100.00
59443;BME280;45247;47.466;19.004;2023-05-03T01:22:07;100207.44;;;12.64;100.00
59443;BME280;45247;47.466;19.004;2023-05-03T01:24:39;100214.25;;;12.68;100.00
59443;BME280;45247;47.466;19.004;2023-05-03T01:27:09;100211.63;;;12.68;100.00
59443;BME280;45247;47.466;19.004;2023-05-03T01:29:38;100201.38;;;12.62;100.00
59443;BME280;45247;47.466;19.004;2023-05-03T01:32:09;100202.63;;;12.56;100.00
59443;BME280;45247;47.466;19.004;2023-05-03T01:34:44;100207.75;;;12.59;100.00
59443;BME280;45247;47.466;19.004;2023-05-03T01:37:17;100204.50;;;12.54;100.00
59443;BME280;45247;47.466;19.004;2023-05-03T01:39:49;100206.69;;;12.62;100.00
59443;BME280;45247;47.466;19.004;2023-05-03T01:42:21;100209.88;;;12.67;100.00
59443;BME280;45247;47.466;19.004;2023-05-03T01:44:51;100206.50;;;12.65;100.00
59443;BME280;45247;47.466;19.004;2023-05-03T01:47:20;100208.75;;;12.71;100.00
59443;BME280;45247;47.466;19.004;2023-05-03T01:49:48;100202.53;;;12.72;100.00
59443;BME280;45247;47.466;19.004;2023-05-03T01:52:16;100198.94;;;12.73;100.00
59443;BME280;45247;47.466;19.004;2023-05-03T01:54:45;100197.00;;;12.75;100.00
59443;BME280;45247;47.466;19.004;2023-05-03T01:57:13;100184.53;;;12.77;100.00
59443;BME280;45247;47.466;19.004;2023-05-03T01:59:42;100193.41;;;12.76;100.00
59443;BME280;45247;47.466;19.004;2023-05-03T02:02:10;100189.28;;;12.72;100.00
59443;BME280;45247;47.466;19.004;2023-05-03T02:04:39;100187.50;;;12.72;100.00
59443;BME280;45247;47.466;19.004;2023-05-03T02:07:07;100180.16;;;12.76;100.00
59443;BME280;45247;47.466;19.004;2023-05-03T02:09:35;100176.97;;;12.71;100.00
59443;BME280;45247;47.466;19.004;2023-05-03T02:12:03;100184.53;;;12.77;100.00
59443;BME280;45247;47.466;19.004;2023-05-03T02:14:32;100179.53;;;12.72;100.00
59443;BME280;45247;47.466;19.004;2023-05-03T02:17:01;100173.28;;;12.73;100.00
59443;BME280;45247;47.466;19.004;2023-05-03T02:19:30;100175.16;;;12.71;100.00
59443;BME280;45247;47.466;19.004;2023-05-03T02:21:58;100179.53;;;12.72;100.00
59443;BME280;45247;47.466;19.004;2023-05-03T02:24:26;100177.94;;;12.70;100.00
59443;BME280;45247;47.466;19.004;2023-05-03T02:26:55;100174.53;;;12.68;100.00
59443;BME280;45247;47.466;19.004;2023-05-03T02:29:23;100178.13;;;12.67;100.00
59443;BME280;45247;47.466;19.004;2023-05-03T02:31:51;100169.44;;;12.65;100.00
59443;BME280;45247;47.466;19.004;2023-05-03T02:34:21;100171.31;;;12.63;100.00
59443;BME280;45247;47.466;19.004;2023-05-03T02:36:49;100172.16;;;12.63;100.00
59443;BME280;45247;47.466;19.004;2023-05-03T02:39:17;100174.72;;;12.65;100.00
59443;BME280;45247;47.466;19.004;2023-05-03T02:41:45;100163.19;;;12.66;100.00
59443;BME280;45247;47.466;19.004;2023-05-03T02:44:13;100170.56;;;12.61;100.00
59443;BME280;45247;47.466;19.004;2023-05-03T02:46:41;100164.50;;;12.59;100.00
59443;BME280;45247;47.466;19.004;2023-05-03T02:49:09;100171.72;;;12.57;100.00
59443;BME280;45247;47.466;19.004;2023-05-03T02:51:39;100162.81;;;12.58;100.00
59443;BME280;45247;47.466;19.004;2023-05-03T02:54:07;100157.72;;;12.54;100.00
59443;BME280;45247;47.466;19.004;2023-05-03T02:56:35;100163.00;;;12.54;100.00
59443;BME280;45247;47.466;19.004;2023-05-03T02:59:03;100159.44;;;12.56;100.00
59443;BME280;45247;47.466;19.004;2023-05-03T03:01:32;100163.00;;;12.54;100.00
59443;BME280;45247;47.466;19.004;2023-05-03T03:04:00;100161.31;;;12.53;100.00
59443;BME280;45247;47.466;19.004;2023-05-03T03:06:29;100162.38;;;12.51;100.00
59443;BME280;45247;47.466;19.004;2023-05-03T03:08:59;100161.53;;;12.50;100.00
59443;BME280;45247;47.466;19.004;2023-05-03T03:11:27;100158.88;;;12.50;100.00
59443;BME280;45247;47.466;19.004;2023-05-03T03:13:55;100170.22;;;12.52;100.00
59443;BME280;45247;47.466;19.004;2023-05-03T03:16:23;100155.34;;;12.50;100.00
59443;BME280;45247;47.466;19.004;2023-05-03T03:18:51;100165.09;;;12.49;100.00
59443;BME280;45247;47.466;19.004;2023-05-03T03:21:19;100162.56;;;12.48;100.00
59443;BME280;45247;47.466;19.004;2023-05-03T03:23:47;100170.59;;;12.46;100.00
59443;BME280;45247;47.466;19.004;2023-05-03T03:26:17;100165.69;;;12.40;100.00
59443;BME280;45247;47.466;19.004;2023-05-03T03:28:45;100165.50;;;12.43;100.00
59443;BME280;45247;47.466;19.004;2023-05-03T03:31:13;100170.59;;;12.46;100.00
59443;BME280;45247;47.466;19.004;2023-05-03T03:33:44;100174.56;;;12.39;100.00
59443;BME280;45247;47.466;19.004;2023-05-03T03:36:12;100172.88;;;12.38;100.00
59443;BME280;45247;47.466;19.004;2023-05-03T03:38:40;100170.31;;;12.37;100.00
59443;BME280;45247;47.466;19.004;2023-05-03T03:41:08;100158.44;;;12.30;100.00
59443;BME280;45247;47.466;19.004;2023-05-03T03:43:38;100168.06;;;12.31;100.00
59443;BME280;45247;47.466;19.004;2023-05-03T03:46:06;100180.22;;;12.33;100.00
59443;BME280;45247;47.466;19.004;2023-05-03T03:48:34;100177.50;;;12.35;100.00
59443;BME280;45247;47.466;19.004;2023-05-03T03:51:03;100181.84;;;12.36;100.00
59443;BME280;45247;47.466;19.004;2023-05-03T03:53:31;100181.97;;;12.34;100.00
59443;BME280;45247;47.466;19.004;2023-05-03T03:55:59;100185.34;;;12.36;100.00
59443;BME280;45247;47.466;19.004;2023-05-03T03:58:27;100175.16;;;12.30;100.00
59443;BME280;45247;47.466;19.004;2023-05-03T04:00:57;100180.06;;;12.36;100.00
59443;BME280;45247;47.466;19.004;2023-05-03T04:03:26;100183.25;;;12.41;100.00
59443;BME280;45247;47.466;19.004;2023-05-03T04:05:54;100181.19;;;12.46;100.00
59443;BME280;45247;47.466;19.004;2023-05-03T04:08:22;100186.69;;;12.43;100.00
59443;BME280;45247;47.466;19.004;2023-05-03T04:10:50;100182.88;;;12.47;100.00
59443;BME280;45247;47.466;19.004;2023-05-03T04:13:18;100189.88;;;12.48;100.00
59443;BME280;45247;47.466;19.004;2023-05-03T04:15:47;100193.06;;;12.53;100.00
59443;BME280;45247;47.466;19.004;2023-05-03T04:18:16;100190.25;;;12.57;100.00
59443;BME280;45247;47.466;19.004;2023-05-03T04:20:44;100190.34;;;12.55;100.00
59443;BME280;45247;47.466;19.004;2023-05-03T04:23:12;100198.94;;;12.59;100.00
59443;BME280;45247;47.466;19.004;2023-05-03T04:25:42;100194.59;;;12.58;100.00
59443;BME280;45247;47.466;19.004;2023-05-03T04:28:12;100197.78;;;12.63;100.00
59443;BME280;45247;47.466;19.004;2023-05-03T04:30:41;100193.06;;;12.68;100.00
59443;BME280;45247;47.466;19.004;2023-05-03T04:33:10;100202.72;;;12.69;100.00
59443;BME280;45247;47.466;19.004;2023-05-03T04:35:40;100202.91;;;12.66;100.00
59443;BME280;45247;47.466;19.004;2023-05-03T04:38:08;100204.50;;;12.68;100.00
59443;BME280;45247;47.466;19.004;2023-05-03T04:40:37;100221.63;;;12.77;100.00
59443;BME280;45247;47.466;19.004;2023-05-03T04:43:05;100215.91;;;12.83;100.00
59443;BME280;45247;47.466;19.004;2023-05-03T04:45:33;100214.22;;;12.82;100.00
59443;BME280;45247;47.466;19.004;2023-05-03T04:48:01;100230.66;;;12.87;100.00
59443;BME280;45247;47.466;19.004;2023-05-03T04:50:31;100229.53;;;12.91;100.00
59443;BME280;45247;47.466;19.004;2023-05-03T04:53:00;100226.13;;;12.89;100.00
59443;BME280;45247;47.466;19.004;2023-05-03T04:55:29;100223.75;;;12.85;100.00
59443;BME280;45247;47.466;19.004;2023-05-03T04:57:57;100225.91;;;12.92;100.00
59443;BME280;45247;47.466;19.004;2023-05-03T05:00:26;100230.72;;;13.00;100.00
59443;BME280;45247;47.466;19.004;2023-05-03T05:02:54;100230.25;;;13.08;100.00
59443;BME280;45247;47.466;19.004;2023-05-03T05:05:24;100227.59;;;13.08;100.00
59443;BME280;45247;47.466;19.004;2023-05-03T05:07:52;100236.09;;;13.13;100.00
59443;BME280;45247;47.466;19.004;2023-05-03T05:10:22;100230.97;;;13.24;100.00
59443;BME280;45247;47.466;19.004;2023-05-03T05:12:50;100237.84;;;13.41;100.00
59443;BME280;45247;47.466;19.004;2023-05-03T05:15:18;100237.88;;;13.53;100.00
59443;BME280;45247;47.466;19.004;2023-05-03T05:17:47;100243.44;;;13.76;100.00
59443;BME280;45247;47.466;19.004;2023-05-03T05:20:15;100227.75;;;13.98;100.00
59443;BME280;45247;47.466;19.004;2023-05-03T05:22:44;100232.22;;;14.23;100.00
59443;BME280;45247;47.466;19.004;2023-05-03T05:25:12;100228.78;;;14.47;100.00
59443;BME280;45247;47.466;19.004;2023-05-03T05:27:42;100230.28;;;14.64;100.00
59443;BME280;45247;47.466;19.004;2023-05-03T05:30:11;100233.22;;;14.85;100.00
59443;BME280;45247;47.466;19.004;2023-05-03T05:32:39;100235.91;;;15.09;100.00
59443;BME280;45247;47.466;19.004;2023-05-03T05:35:08;100236.44;;;15.38;100.00
59443;BME280;45247;47.466;19.004;2023-05-03T05:37:36;100238.56;;;15.81;100.00
59443;BME280;45247;47.466;19.004;2023-05-03T05:40:06;100239.84;;;16.10;100.00
59443;BME280;45247;47.466;19.004;2023-05-03T05:42:34;100240.47;;;16.59;100.00
59443;BME280;45247;47.466;19.004;2023-05-03T05:45:05;100244.72;;;16.72;100.00
59443;BME280;45247;47.466;19.004;2023-05-03T05:47:33;100249.19;;;16.61;100.00
59443;BME280;45247;47.466;19.004;2023-05-03T05:50:02;100257.81;;;16.75;100.00
59443;BME280;45247;47.466;19.004;2023-05-03T05:52:43;100248.44;;;16.70;100.00
59443;BME280;45247;47.466;19.004;2023-05-03T05:55:13;100257.28;;;16.48;100.00
59443;BME280;45247;47.466;19.004;2023-05-03T05:57:41;100266.28;;;16.58;100.00
59443;BME280;45247;47.466;19.004;2023-05-03T06:00:12;100271.25;;;16.63;100.00
59443;BME280;45247;47.466;19.004;2023-05-03T06:02:41;100282.25;;;16.58;100.00
59443;BME280;45247;47.466;19.004;2023-05-03T06:05:09;100280.56;;;16.46;100.00
59443;BME280;45247;47.466;19.004;2023-05-03T06:07:38;100284.41;;;16.31;100.00
59443;BME280;45247;47.466;19.004;2023-05-03T06:10:07;100286.22;;;16.19;100.00
59443;BME280;45247;47.466;19.004;2023-05-03T06:12:35;100287.84;;;15.97;100.00
59443;BME280;45247;47.466;19.004;2023-05-03T06:15:04;100294.78;;;16.11;100.00
59443;BME280;45247;47.466;19.004;2023-05-03T06:17:34;100296.59;;;16.22;100.00
59443;BME280;45247;47.466;19.004;2023-05-03T06:20:03;100298.91;;;16.26;100.00
59443;BME280;45247;47.466;19.004;2023-05-03T06:22:31;100298.09;;;16.37;100.00
59443;BME280;45247;47.466;19.004;2023-05-03T06:25:00;100303.56;;;16.58;100.00
59443;BME280;45247;47.466;19.004;2023-05-03T06:27:28;100297.91;;;16.85;100.00
59443;BME280;45247;47.466;19.004;2023-05-03T06:29:56;100299.94;;;17.04;100.00
59443;BME280;45247;47.466;19.004;2023-05-03T06:32:24;100308.06;;;17.02;100.00
59443;BME280;45247;47.466;19.004;2023-05-03T06:34:54;100314.75;;;16.97;100.00
59443;BME280;45247;47.466;19.004;2023-05-03T06:37:25;100315.69;;;17.18;100.00
59443;BME280;45247;47.466;19.004;2023-05-03T06:39:53;100315.13;;;17.58;100.00
59443;BME280;45247;47.466;19.004;2023-05-03T06:42:21;100311.81;;;17.66;100.00
59443;BME280;45247;47.466;19.004;2023-05-03T06:44:49;100323.28;;;17.89;100.00
59443;BME280;45247;47.466;19.004;2023-05-03T06:47:17;100318.69;;;18.12;100.00
59443;BME280;45247;47.466;19.004;2023-05-03T06:49:47;100316.09;;;18.42;100.00
59443;BME280;45247;47.466;19.004;2023-05-03T06:52:16;100314.31;;;18.52;100.00
59443;BME280;45247;47.466;19.004;2023-05-03T06:54:45;100323.59;;;18.79;100.00
59443;BME280;45247;47.466;19.004;2023-05-03T06:57:13;100322.31;;;19.04;100.00
59443;BME280;45247;47.466;19.004;2023-05-03T06:59:41;100317.63;;;18.96;100.00
59443;BME280;45247;47.466;19.004;2023-05-03T07:02:09;100316.72;;;18.56;100.00
59443;BME280;45247;47.466;19.004;2023-05-03T07:04:37;100314.56;;;18.49;100.00
59443;BME280;45247;47.466;19.004;2023-05-03T07:07:06;100311.72;;;18.93;100.00
59443;BME280;45247;47.466;19.004;2023-05-03T07:09:35;100309.53;;;19.27;100.00
59443;BME280;45247;47.466;19.004;2023-05-03T07:12:09;100304.19;;;19.27;100.00
59443;BME280;45247;47.466;19.004;2023-05-03T07:14:38;100300.69;;;19.26;100.00
59443;BME280;45247;47.466;19.004;2023-05-03T07:17:06;100302.66;;;19.24;100.00
59443;BME280;45247;47.466;19.004;2023-05-03T07:19:34;100310.28;;;19.48;100.00
59443;BME280;45247;47.466;19.004;2023-05-03T07:22:03;100302.25;;;19.39;100.00
59443;BME280;45247;47.466;19.004;2023-05-03T07:24:31;100309.25;;;19.11;100.00
59443;BME280;45247;47.466;19.004;2023-05-03T07:27:00;100315.06;;;19.35;100.00
59443;BME280;45247;47.466;19.004;2023-05-03T07:29:29;100319.56;;;19.25;98.20
59443;BME280;45247;47.466;19.004;2023-05-03T07:31:57;100304.84;;;19.10;100.00
59443;BME280;45247;47.466;19.004;2023-05-03T07:34:25;100314.69;;;19.49;99.46
59443;BME280;45247;47.466;19.004;2023-05-03T07:36:53;100315.88;;;19.66;95.68
59443;BME280;45247;47.466;19.004;2023-05-03T07:39:22;100316.94;;;19.54;94.88
59443;BME280;45247;47.466;19.004;2023-05-03T07:41:50;100315.59;;;19.79;94.92
59443;BME280;45247;47.466;19.004;2023-05-03T07:44:19;100318.53;;;19.66;88.28
59443;BME280;45247;47.466;19.004;2023-05-03T07:46:48;100315.84;;;19.95;89.97
59443;BME280;45247;47.466;19.004;2023-05-03T07:49:16;100310.91;;;20.10;86.03
59443;BME280;45247;47.466;19.004;2023-05-03T07:51:44;100322.34;;;20.22;87.46
59443;BME280;45247;47.466;19.004;2023-05-03T07:54:12;100323.44;;;20.29;87.56
59443;BME280;45247;47.466;19.004;2023-05-03T07:56:40;100322.44;;;20.49;85.69
59443;BME280;45247;47.466;19.004;2023-05-03T07:59:08;100319.03;;;20.38;86.85
59443;BME280;45247;47.466;19.004;2023-05-03T08:01:38;100324.78;;;20.72;88.01
59443;BME280;45247;47.466;19.004;2023-05-03T08:04:06;100327.09;;;20.47;86.36
59443;BME280;45247;47.466;19.004;2023-05-03T08:06:34;100333.16;;;20.49;89.08
59443;BME280;45247;47.466;19.004;2023-05-03T08:09:04;100328.22;;;20.55;90.16
59443;BME280;45247;47.466;19.004;2023-05-03T08:11:32;100331.72;;;20.65;90.92
59443;BME280;45247;47.466;19.004;2023-05-03T08:14:00;100329.16;;;20.73;93.04
59443;BME280;45247;47.466;19.004;2023-05-03T08:16:28;100345.38;;;20.71;85.04
59443;BME280;45247;47.466;19.004;2023-05-03T08:18:58;100329.22;;;20.34;92.74
59443;BME280;45247;47.466;19.004;2023-05-03T08:21:26;100337.09;;;20.45;87.01
59443;BME280;45247;47.466;19.004;2023-05-03T08:23:56;100329.47;;;20.60;90.05
59443;BME280;45247;47.466;19.004;2023-05-03T08:26:24;100331.53;;;20.00;90.88
59443;BME280;45247;47.466;19.004;2023-05-03T08:28:54;100337.72;;;20.00;95.19
59443;BME280;45247;47.466;19.004;2023-05-03T08:31:22;100340.69;;;19.97;96.36
59443;BME280;45247;47.466;19.004;2023-05-03T08:33:50;100331.50;;;19.90;100.00
59443;BME280;45247;47.466;19.004;2023-05-03T08:36:20;100345.31;;;20.15;99.53
59443;BME280;45247;47.466;19.004;2023-05-03T08:38:48;100334.03;;;20.31;97.01
59443;BME280;45247;47.466;19.004;2023-05-03T08:41:20;100341.78;;;20.24;95.51
59443;BME280;45247;47.466;19.004;2023-05-03T08:43:53;100344.69;;;20.60;90.07
59443;BME280;45247;47.466;19.004;2023-05-03T08:46:24;100346.09;;;20.64;83.77
59443;BME280;45247;47.466;19.004;2023-05-03T08:48:53;100351.41;;;20.83;84.95
59443;BME280;45247;47.466;19.004;2023-05-03T08:51:23;100345.28;;;21.28;85.61
59443;BME280;45247;47.466;19.004;2023-05-03T08:53:53;100347.81;;;21.39;77.82
59443;BME280;45247;47.466;19.004;2023-05-03T08:56:27;100344.78;;;21.15;79.76
59443;BME280;45247;47.466;19.004;2023-05-03T08:58:56;100347.91;;;21.47;83.44
59443;BME280;45247;47.466;19.004;2023-05-03T09:01:30;100350.75;;;21.64;77.60
59443;BME280;45247;47.466;19.004;2023-05-03T09:03:59;100342.53;;;21.47;79.04
59443;BME280;45247;47.466;19.004;2023-05-03T09:06:29;100340.50;;;21.77;83.18
59443;BME280;45247;47.466;19.004;2023-05-03T09:08:59;100341.97;;;21.89;75.78
59443;BME280;45247;47.466;19.004;2023-05-03T09:11:31;100342.47;;;22.11;75.01
59443;BME280;45247;47.466;19.004;2023-05-03T09:14:08;100342.91;;;21.53;74.88
59443;BME280;45247;47.466;19.004;2023-05-03T09:16:37;100338.63;;;21.95;75.57
59443;BME280;45247;47.466;19.004;2023-05-03T09:19:06;100334.41;;;22.29;74.37
59443;BME280;45247;47.466;19.004;2023-05-03T09:21:39;100332.81;;;22.18;72.35
59443;BME280;45247;47.466;19.004;2023-05-03T09:24:11;100334.41;;;22.29;72.58
59443;BME280;45247;47.466;19.004;2023-05-03T09:26:46;100339.88;;;22.63;73.68
59443;BME280;45247;47.466;19.004;2023-05-03T09:29:31;100343.69;;;22.34;74.18
59443;BME280;45247;47.466;19.004;2023-05-03T09:32:05;100329.94;;;21.48;73.96
59443;BME280;45247;47.466;19.004;2023-05-03T09:34:36;100337.06;;;21.39;77.65
59443;BME280;45247;47.466;19.004;2023-05-03T09:37:06;100344.88;;;20.95;80.53
59443;BME280;45247;47.466;19.004;2023-05-03T09:39:36;100335.75;;;21.16;81.16
59443;BME280;45247;47.466;19.004;2023-05-03T09:42:11;100337.19;;;21.65;79.98
59443;BME280;45247;47.466;19.004;2023-05-03T09:44:41;100339.19;;;21.81;77.87
59443;BME280;45247;47.466;19.004;2023-05-03T09:47:10;100339.47;;;21.78;76.44
59443;BME280;45247;47.466;19.004;2023-05-03T09:49:38;100337.09;;;21.75;79.38
59443;BME280;45247;47.466;19.004;2023-05-03T09:52:08;100335.13;;;21.77;78.79
59443;BME280;45247;47.466;19.004;2023-05-03T09:54:37;100328.34;;;21.73;78.83
59443;BME280;45247;47.466;19.004;2023-05-03T09:57:06;100336.16;;;21.66;79.18
59443;BME280;45247;47.466;19.004;2023-05-03T09:59:36;100327.81;;;21.87;77.33
59443;BME280;45247;47.466;19.004;2023-05-03T10:02:06;100334.66;;;21.99;78.13
59443;BME280;45247;47.466;19.004;2023-05-03T10:04:38;100334.72;;;22.08;76.18
59443;BME280;45247;47.466;19.004;2023-05-03T10:07:12;100334.03;;;22.06;74.47
59443;BME280;45247;47.466;19.004;2023-05-03T10:09:43;100333.91;;;21.89;74.13
59443;BME280;45247;47.466;19.004;2023-05-03T10:12:12;100340.94;;;21.55;77.79
59443;BME280;45247;47.466;19.004;2023-05-03T10:14:47;100320.09;;;21.84;78.51
59443;BME280;45247;47.466;19.004;2023-05-03T10:17:21;100332.66;;;21.84;79.22
59443;BME280;45247;47.466;19.004;2023-05-03T10:20:18;100326.50;;;22.09;72.93
59443;BME280;45247;47.466;19.004;2023-05-03T10:23:10;100322.06;;;22.44;72.86
59443;BME280;45247;47.466;19.004;2023-05-03T10:26:11;100312.06;;;22.28;76.12
59443;BME280;45247;47.466;19.004;2023-05-03T10:28:28;100319.84;;;22.13;77.20
59443;BME280;45247;47.466;19.004;2023-05-03T10:30:56;100328.66;;;21.70;76.14
59443;BME280;45247;47.466;19.004;2023-05-03T10:33:29;100326.50;;;21.56;77.28
59443;BME280;45247;47.466;19.004;2023-05-03T10:35:58;100326.94;;;21.33;78.51
59443;BME280;45247;47.466;19.004;2023-05-03T10:38:30;100322.66;;;20.75;81.62
59443;BME280;45247;47.466;19.004;2023-05-03T10:40:59;100319.06;;;20.94;84.28
59443;BME280;45247;47.466;19.004;2023-05-03T10:43:43;100323.72;;;20.92;83.34
59443;BME280;45247;47.466;19.004;2023-05-03T10:46:32;100311.69;;;20.69;86.55
59443;BME280;45247;47.466;19.004;2023-05-03T10:49:19;100318.75;;;20.50;87.80
59443;BME280;45247;47.466;19.004;2023-05-03T10:51:47;100313.56;;;20.49;89.92
59443;BME280;45247;47.466;19.004;2023-05-03T10:54:15;100318.16;;;20.47;92.14
59443;BME280;45247;47.466;19.004;2023-05-03T10:56:53;100317.63;;;20.34;91.57
59443;BME280;45247;47.466;19.004;2023-05-03T10:59:22;100314.69;;;20.37;95.32
59443;BME280;45247;47.466;19.004;2023-05-03T11:01:52;100323.56;;;20.57;90.31
59443;BME280;45247;47.466;19.004;2023-05-03T11:04:32;100319.66;;;20.22;93.16
59443;BME280;45247;47.466;19.004;2023-05-03T11:07:02;100319.13;;;20.09;95.26
59443;BME280;45247;47.466;19.004;2023-05-03T11:09:32;100319.13;;;20.09;96.66
59443;BME280;45247;47.466;19.004;2023-05-03T11:12:04;100312.88;;;20.08;97.14
59443;BME280;45247;47.466;19.004;2023-05-03T11:14:33;100303.59;;;20.22;90.71
59443;BME280;45247;47.466;19.004;2023-05-03T11:17:01;100314.41;;;20.49;92.33
59443;BME280;45247;47.466;19.004;2023-05-03T11:19:31;100306.97;;;20.14;89.87
59443;BME280;45247;47.466;19.004;2023-05-03T11:22:00;100317.84;;;19.93;90.87
59443;BME280;45247;47.466;19.004;2023-05-03T11:24:28;100321.19;;;19.95;92.30
59443;BME280;45247;47.466;19.004;2023-05-03T11:26:56;100313.75;;;19.70;94.41
59443;BME280;45247;47.466;19.004;2023-05-03T11:29:24;100312.34;;;19.66;97.45
59443;BME280;45247;47.466;19.004;2023-05-03T11:31:53;100316.72;;;19.67;92.78
59443;BME280;45247;47.466;19.004;2023-05-03T11:34:21;100313.44;;;19.83;92.33
59443;BME280;45247;47.466;19.004;2023-05-03T11:36:50;100314.47;;;20.01;91.72
59443;BME280;45247;47.466;19.004;2023-05-03T11:39:19;100311.22;;;19.97;91.37
59443;BME280;45247;47.466;19.004;2023-05-03T11:42:00;100311.63;;;20.02;93.23
59443;BME280;45247;47.466;19.004;2023-05-03T11:44:30;100306.56;;;19.80;93.88
59443;BME280;45247;47.466;19.004;2023-05-03T11:46:58;100313.16;;;19.95;94.88
59443;BME280;45247;47.466;19.004;2023-05-03T11:49:27;100313.59;;;19.91;94.08
59443;BME280;45247;47.466;19.004;2023-05-03T11:51:57;100311.66;;;19.83;91.83
59443;BME280;45247;47.466;19.004;2023-05-03T11:54:26;100300.78;;;19.94;94.91
59443;BME280;45247;47.466;19.004;2023-05-03T11:56:55;100314.84;;;20.16;96.67
59443;BME280;45247;47.466;19.004;2023-05-03T11:59:35;100312.31;;;19.95;90.19
59443;BME280;45247;47.466;19.004;2023-05-03T12:02:05;100309.50;;;19.87;94.32
59443;BME280;45247;47.466;19.004;2023-05-03T12:04:35;100300.78;;;19.75;97.78
59443;BME280;45247;47.466;19.004;2023-05-03T12:07:09;100312.59;;;19.82;97.65
59443;BME280;45247;47.466;19.004;2023-05-03T12:09:43;100304.16;;;19.77;94.45
59443;BME280;45247;47.466;19.004;2023-05-03T12:12:26;100294.44;;;19.66;94.71
59443;BME280;45247;47.466;19.004;2023-05-03T12:14:59;100303.47;;;19.85;95.87
59443;BME280;45247;47.466;19.004;2023-05-03T12:17:34;100298.50;;;19.99;96.25
59443;BME280;45247;47.466;19.004;2023-05-03T12:20:15;100305.56;;;19.81;97.05
59443;BME280;45247;47.466;19.004;2023-05-03T12:22:49;100302.91;;;19.62;96.07
59443;BME280;45247;47.466;19.004;2023-05-03T12:25:22;100300.22;;;19.62;98.58
59443;BME280;45247;47.466;19.004;2023-05-03T12:27:52;100297.78;;;19.59;95.84
59443;BME280;45247;47.466;19.004;2023-05-03T12:30:40;100291.44;;;19.60;98.33
59443;BME280;45247;47.466;19.004;2023-05-03T12:33:11;100292.34;;;19.70;99.18
59443;BME280;45247;47.466;19.004;2023-05-03T12:35:42;100287.53;;;19.64;96.50
59443;BME280;45247;47.466;19.004;2023-05-03T12:38:15;100281.72;;;19.59;100.00
59443;BME280;45247;47.466;19.004;2023-05-03T12:40:44;100275.66;;;19.57;99.61
59443;BME280;45247;47.466;19.004;2023-05-03T12:43:12;100285.13;;;19.61;98.69
59443;BME280;45247;47.466;19.004;2023-05-03T12:45:42;100281.28;;;19.34;99.14
59443;BME280;45247;47.466;19.004;2023-05-03T12:48:18;100281.28;;;19.34;100.00